sensor_id;sensor_type;location;lat;lon;timestamp;P1;durP1;ratioP1;P2;durP2;ratioP2
24259;SDS011;12384;48.112;18.418;2023-01-23T00:01:35;16.40;;;14.90;;
24259;SDS011;12384;48.112;18.418;2023-01-23T00:04:04;14.70;;;13.33;;
24259;SDS011;12384;48.112;18.418;2023-01-23T00:06:32;16.27;;;14.77;;
24259;SDS011;12384;48.112;18.418;2023-01-23T00:09:01;16.07;;;14.53;;
24259;SDS011;12384;48.112;18.418;2023-01-23T00:11:31;15.50;;;14.10;;
24259;SDS011;12384;48.112;18.418;2023-01-23T00:14:00;15.03;;;13.70;;
24259;SDS011;12384;48.112;18.418;2023-01-23T00:16:30;14.57;;;13.27;;
24259;SDS011;12384;48.112;18.418;2023-01-23T00:18:59;13.93;;;12.63;;
24259;SDS011;12384;48.112;18.418;2023-01-23T00:21:28;15.73;;;14.27;;
24259;SDS011;12384;48.112;18.418;2023-01-23T00:23:57;17.00;;;15.37;;
24259;SDS011;12384;48.112;18.418;2023-01-23T00:26:28;14.10;;;12.90;;
24259;SDS011;12384;48.112;18.418;2023-01-23T00:29:00;15.40;;;14.00;;
24259;SDS011;12384;48.112;18.418;2023-01-23T00:31:30;14.63;;;13.23;;
24259;SDS011;12384;48.112;18.418;2023-01-23T00:34:00;15.10;;;13.70;;
24259;SDS011;12384;48.112;18.418;2023-01-23T00:36:31;15.53;;;14.03;;
24259;SDS011;12384;48.112;18.418;2023-01-23T00:39:01;15.27;;;13.77;;
24259;SDS011;12384;48.112;18.418;2023-01-23T00:41:33;16.60;;;14.80;;
24259;SDS011;12384;48.112;18.418;2023-01-23T00:44:02;15.03;;;13.63;;
24259;SDS011;12384;48.112;18.418;2023-01-23T00:46:31;17.00;;;15.20;;
24259;SDS011;12384;48.112;18.418;2023-01-23T00:49:00;14.33;;;13.03;;
24259;SDS011;12384;48.112;18.418;2023-01-23T00:51:29;14.20;;;13.00;;
24259;SDS011;12384;48.112;18.418;2023-01-23T00:53:57;13.13;;;12.03;;
24259;SDS011;12384;48.112;18.418;2023-01-23T00:56:26;16.23;;;14.60;;
24259;SDS011;12384;48.112;18.418;2023-01-23T00:58:56;14.20;;;12.97;;
24259;SDS011;12384;48.112;18.418;2023-01-23T01:01:24;14.43;;;13.13;;
24259;SDS011;12384;48.112;18.418;2023-01-23T01:03:54;15.17;;;13.77;;
24259;SDS011;12384;48.112;18.418;2023-01-23T01:06:22;13.23;;;12.03;;
24259;SDS011;12384;48.112;18.418;2023-01-23T01:08:51;13.67;;;12.47;;
24259;SDS011;12384;48.112;18.418;2023-01-23T01:11:21;13.43;;;12.27;;
24259;SDS011;12384;48.112;18.418;2023-01-23T01:13:49;13.70;;;12.40;;
24259;SDS011;12384;48.112;18.418;2023-01-23T01:16:19;13.90;;;12.60;;
24259;SDS011;12384;48.112;18.418;2023-01-23T01:18:49;14.23;;;12.97;;
24259;SDS011;12384;48.112;18.418;2023-01-23T01:21:18;13.43;;;12.30;;
24259;SDS011;12384;48.112;18.418;2023-01-23T01:23:47;13.43;;;12.30;;
24259;SDS011;12384;48.112;18.418;2023-01-23T01:26:15;13.87;;;12.57;;
24259;SDS011;12384;48.112;18.418;2023-01-23T01:28:44;13.63;;;12.30;;
24259;SDS011;12384;48.112;18.418;2023-01-23T01:31:13;12.97;;;11.77;;
24259;SDS011;12384;48.112;18.418;2023-01-23T01:33:44;12.93;;;11.67;;
24259;SDS011;12384;48.112;18.418;2023-01-23T01:36:14;14.27;;;12.70;;
24259;SDS011;12384;48.112;18.418;2023-01-23T01:38:45;12.53;;;11.43;;
24259;SDS011;12384;48.112;18.418;2023-01-23T01:41:14;12.87;;;11.67;;
24259;SDS011;12384;48.112;18.418;2023-01-23T01:43:43;12.20;;;11.10;;
24259;SDS011;12384;48.112;18.418;2023-01-23T01:46:16;13.40;;;12.20;;
24259;SDS011;12384;48.112;18.418;2023-01-23T01:48:59;11.60;;;10.50;;
24259;SDS011;12384;48.112;18.418;2023-01-23T01:51:34;12.33;;;11.23;;
24259;SDS011;12384;48.112;18.418;2023-01-23T01:54:07;11.90;;;10.83;;
24259;SDS011;12384;48.112;18.418;2023-01-23T01:56:43;12.10;;;11.00;;
24259;SDS011;12384;48.112;18.418;2023-01-23T01:59:15;11.40;;;10.40;;
24259;SDS011;12384;48.112;18.418;2023-01-23T02:01:46;11.20;;;10.30;;
24259;SDS011;12384;48.112;18.418;2023-01-23T02:04:19;11.50;;;10.47;;
24259;SDS011;12384;48.112;18.418;2023-01-23T02:06:48;11.97;;;10.93;;
24259;SDS011;12384;48.112;18.418;2023-01-23T02:09:20;12.20;;;11.20;;
24259;SDS011;12384;48.112;18.418;2023-01-23T02:11:52;11.87;;;10.87;;
24259;SDS011;12384;48.112;18.418;2023-01-23T02:14:20;11.37;;;10.37;;
24259;SDS011;12384;48.112;18.418;2023-01-23T02:16:51;11.77;;;10.77;;
24259;SDS011;12384;48.112;18.418;2023-01-23T02:19:30;11.10;;;10.20;;
24259;SDS011;12384;48.112;18.418;2023-01-23T02:22:10;10.77;;;9.87;;
24259;SDS011;12384;48.112;18.418;2023-01-23T02:24:51;11.33;;;10.40;;
24259;SDS011;12384;48.112;18.418;2023-01-23T02:27:27;11.23;;;10.23;;
24259;SDS011;12384;48.112;18.418;2023-01-23T02:29:55;10.77;;;9.97;;
24259;SDS011;12384;48.112;18.418;2023-01-23T02:32:28;10.00;;;9.30;;
24259;SDS011;12384;48.112;18.418;2023-01-23T02:34:57;11.23;;;10.30;;
24259;SDS011;12384;48.112;18.418;2023-01-23T02:37:32;9.90;;;9.10;;
24259;SDS011;12384;48.112;18.418;2023-01-23T02:40:02;10.10;;;9.30;;
24259;SDS011;12384;48.112;18.418;2023-01-23T02:42:35;10.10;;;9.30;;
24259;SDS011;12384;48.112;18.418;2023-01-23T02:45:11;10.17;;;9.27;;
24259;SDS011;12384;48.112;18.418;2023-01-23T02:47:39;10.60;;;9.60;;
24259;SDS011;12384;48.112;18.418;2023-01-23T02:50:08;10.10;;;9.20;;
24259;SDS011;12384;48.112;18.418;2023-01-23T02:52:37;10.07;;;9.27;;
24259;SDS011;12384;48.112;18.418;2023-01-23T02:55:06;10.10;;;9.30;;
24259;SDS011;12384;48.112;18.418;2023-01-23T02:57:36;11.10;;;10.20;;
24259;SDS011;12384;48.112;18.418;2023-01-23T03:00:04;14.13;;;12.63;;
24259;SDS011;12384;48.112;18.418;2023-01-23T03:02:47;11.67;;;10.63;;
24259;SDS011;12384;48.112;18.418;2023-01-23T03:05:17;14.97;;;13.43;;
24259;SDS011;12384;48.112;18.418;2023-01-23T03:07:46;13.80;;;12.40;;
24259;SDS011;12384;48.112;18.418;2023-01-23T03:10:14;15.33;;;13.30;;
24259;SDS011;12384;48.112;18.418;2023-01-23T03:12:45;11.83;;;10.77;;
24259;SDS011;12384;48.112;18.418;2023-01-23T03:15:14;12.20;;;10.97;;
24259;SDS011;12384;48.112;18.418;2023-01-23T03:17:43;11.40;;;10.37;;
24259;SDS011;12384;48.112;18.418;2023-01-23T03:20:12;13.17;;;11.30;;
24259;SDS011;12384;48.112;18.418;2023-01-23T03:22:41;11.63;;;10.43;;
24259;SDS011;12384;48.112;18.418;2023-01-23T03:25:10;10.70;;;9.70;;
24259;SDS011;12384;48.112;18.418;2023-01-23T03:27:38;10.63;;;9.73;;
24259;SDS011;12384;48.112;18.418;2023-01-23T03:30:09;11.37;;;10.23;;
24259;SDS011;12384;48.112;18.418;2023-01-23T03:32:42;10.90;;;9.93;;
24259;SDS011;12384;48.112;18.418;2023-01-23T03:35:12;10.33;;;9.40;;
24259;SDS011;12384;48.112;18.418;2023-01-23T03:37:43;9.83;;;8.90;;
24259;SDS011;12384;48.112;18.418;2023-01-23T03:40:14;11.40;;;9.27;;
24259;SDS011;12384;48.112;18.418;2023-01-23T03:43:03;10.00;;;9.10;;
24259;SDS011;12384;48.112;18.418;2023-01-23T03:45:35;10.53;;;9.63;;
24259;SDS011;12384;48.112;18.418;2023-01-23T03:48:05;9.40;;;8.53;;
24259;SDS011;12384;48.112;18.418;2023-01-23T03:50:34;8.80;;;8.00;;
24259;SDS011;12384;48.112;18.418;2023-01-23T03:53:03;9.07;;;8.27;;
24259;SDS011;12384;48.112;18.418;2023-01-23T03:55:31;8.93;;;8.17;;
24259;SDS011;12384;48.112;18.418;2023-01-23T03:58:00;7.83;;;7.20;;
24259;SDS011;12384;48.112;18.418;2023-01-23T04:00:31;7.90;;;7.30;;
24259;SDS011;12384;48.112;18.418;2023-01-23T04:03:05;7.80;;;7.20;;
24259;SDS011;12384;48.112;18.418;2023-01-23T04:05:36;8.33;;;7.63;;
24259;SDS011;12384;48.112;18.418;2023-01-23T04:08:04;8.30;;;7.60;;
24259;SDS011;12384;48.112;18.418;2023-01-23T04:10:34;7.73;;;7.10;;
24259;SDS011;12384;48.112;18.418;2023-01-23T04:13:10;8.17;;;7.50;;
24259;SDS011;12384;48.112;18.418;2023-01-23T04:15:39;8.10;;;7.40;;
24259;SDS011;12384;48.112;18.418;2023-01-23T04:18:08;6.97;;;6.47;;
24259;SDS011;12384;48.112;18.418;2023-01-23T04:20:37;7.60;;;7.00;;
24259;SDS011;12384;48.112;18.418;2023-01-23T04:23:05;7.60;;;6.90;;
24259;SDS011;12384;48.112;18.418;2023-01-23T04:25:35;7.33;;;6.73;;
24259;SDS011;12384;48.112;18.418;2023-01-23T04:28:10;6.87;;;6.37;;
24259;SDS011;12384;48.112;18.418;2023-01-23T04:30:39;7.03;;;6.43;;
24259;SDS011;12384;48.112;18.418;2023-01-23T04:33:16;7.50;;;6.90;;
24259;SDS011;12384;48.112;18.418;2023-01-23T04:35:49;6.53;;;6.03;;
24259;SDS011;12384;48.112;18.418;2023-01-23T04:38:20;8.03;;;7.40;;
24259;SDS011;12384;48.112;18.418;2023-01-23T04:40:50;6.90;;;6.40;;
24259;SDS011;12384;48.112;18.418;2023-01-23T04:43:19;6.83;;;6.33;;
24259;SDS011;12384;48.112;18.418;2023-01-23T04:45:50;7.77;;;7.17;;
24259;SDS011;12384;48.112;18.418;2023-01-23T04:48:43;8.10;;;7.50;;
24259;SDS011;12384;48.112;18.418;2023-01-23T04:51:15;8.40;;;7.70;;
24259;SDS011;12384;48.112;18.418;2023-01-23T04:53:44;9.07;;;8.13;;
24259;SDS011;12384;48.112;18.418;2023-01-23T04:56:13;8.30;;;7.50;;
24259;SDS011;12384;48.112;18.418;2023-01-23T04:58:41;7.93;;;6.93;;
24259;SDS011;12384;48.112;18.418;2023-01-23T05:01:15;7.57;;;6.87;;
24259;SDS011;12384;48.112;18.418;2023-01-23T05:03:55;7.90;;;7.30;;
24259;SDS011;12384;48.112;18.418;2023-01-23T05:06:23;8.30;;;7.63;;
24259;SDS011;12384;48.112;18.418;2023-01-23T05:08:54;8.27;;;7.60;;
24259;SDS011;12384;48.112;18.418;2023-01-23T05:11:28;7.50;;;7.00;;
24259;SDS011;12384;48.112;18.418;2023-01-23T05:13:58;7.50;;;6.90;;
24259;SDS011;12384;48.112;18.418;2023-01-23T05:16:28;8.03;;;7.33;;
24259;SDS011;12384;48.112;18.418;2023-01-23T05:19:21;7.77;;;7.00;;
24259;SDS011;12384;48.112;18.418;2023-01-23T05:21:55;7.17;;;6.57;;
24259;SDS011;12384;48.112;18.418;2023-01-23T05:24:24;6.90;;;6.37;;
24259;SDS011;12384;48.112;18.418;2023-01-23T05:26:55;6.53;;;6.07;;
24259;SDS011;12384;48.112;18.418;2023-01-23T05:29:26;7.00;;;6.50;;
24259;SDS011;12384;48.112;18.418;2023-01-23T05:32:15;6.40;;;5.80;;
24259;SDS011;12384;48.112;18.418;2023-01-23T05:34:55;6.90;;;6.30;;
24259;SDS011;12384;48.112;18.418;2023-01-23T05:37:28;6.47;;;6.07;;
24259;SDS011;12384;48.112;18.418;2023-01-23T05:40:01;7.13;;;6.53;;
24259;SDS011;12384;48.112;18.418;2023-01-23T05:42:51;6.40;;;5.80;;
24259;SDS011;12384;48.112;18.418;2023-01-23T05:45:39;6.10;;;5.60;;
24259;SDS011;12384;48.112;18.418;2023-01-23T05:48:15;5.67;;;5.27;;
24259;SDS011;12384;48.112;18.418;2023-01-23T05:50:45;5.97;;;5.47;;
24259;SDS011;12384;48.112;18.418;2023-01-23T05:53:14;5.60;;;5.20;;
24259;SDS011;12384;48.112;18.418;2023-01-23T05:55:42;5.73;;;5.30;;
24259;SDS011;12384;48.112;18.418;2023-01-23T05:58:12;6.00;;;5.60;;
24259;SDS011;12384;48.112;18.418;2023-01-23T06:01:15;5.57;;;5.17;;
24259;SDS011;12384;48.112;18.418;2023-01-23T06:04:02;7.00;;;6.30;;
24259;SDS011;12384;48.112;18.418;2023-01-23T06:06:43;8.70;;;7.80;;
24259;SDS011;12384;48.112;18.418;2023-01-23T06:09:13;9.60;;;8.60;;
24259;SDS011;12384;48.112;18.418;2023-01-23T06:11:41;9.90;;;8.70;;
24259;SDS011;12384;48.112;18.418;2023-01-23T06:14:10;9.93;;;8.93;;
24259;SDS011;12384;48.112;18.418;2023-01-23T06:16:39;8.80;;;8.00;;
24259;SDS011;12384;48.112;18.418;2023-01-23T06:19:08;8.80;;;7.90;;
24259;SDS011;12384;48.112;18.418;2023-01-23T06:21:37;9.47;;;8.57;;
24259;SDS011;12384;48.112;18.418;2023-01-23T06:24:07;9.27;;;8.37;;
24259;SDS011;12384;48.112;18.418;2023-01-23T06:26:35;8.77;;;7.97;;
24259;SDS011;12384;48.112;18.418;2023-01-23T06:29:05;8.63;;;7.93;;
24259;SDS011;12384;48.112;18.418;2023-01-23T06:31:33;7.67;;;7.03;;
24259;SDS011;12384;48.112;18.418;2023-01-23T06:34:02;8.43;;;7.63;;
24259;SDS011;12384;48.112;18.418;2023-01-23T06:36:38;8.73;;;8.03;;
24259;SDS011;12384;48.112;18.418;2023-01-23T06:39:08;8.60;;;7.80;;
24259;SDS011;12384;48.112;18.418;2023-01-23T06:41:41;8.20;;;7.50;;
24259;SDS011;12384;48.112;18.418;2023-01-23T06:44:16;8.57;;;7.77;;
24259;SDS011;12384;48.112;18.418;2023-01-23T06:46:44;8.30;;;7.60;;
24259;SDS011;12384;48.112;18.418;2023-01-23T06:49:13;8.03;;;7.33;;
24259;SDS011;12384;48.112;18.418;2023-01-23T06:51:41;8.90;;;8.20;;
24259;SDS011;12384;48.112;18.418;2023-01-23T06:54:12;8.50;;;7.70;;
24259;SDS011;12384;48.112;18.418;2023-01-23T06:56:42;8.03;;;7.33;;
24259;SDS011;12384;48.112;18.418;2023-01-23T06:59:11;7.97;;;7.27;;
24259;SDS011;12384;48.112;18.418;2023-01-23T07:01:41;9.70;;;8.63;;
24259;SDS011;12384;48.112;18.418;2023-01-23T07:04:33;9.40;;;8.40;;
24259;SDS011;12384;48.112;18.418;2023-01-23T07:07:01;8.87;;;8.07;;
24259;SDS011;12384;48.112;18.418;2023-01-23T07:09:33;8.77;;;7.97;;
24259;SDS011;12384;48.112;18.418;2023-01-23T07:12:21;8.87;;;8.07;;
24259;SDS011;12384;48.112;18.418;2023-01-23T07:14:50;21.60;;;12.60;;
24259;SDS011;12384;48.112;18.418;2023-01-23T07:17:25;12.37;;;9.93;;
24259;SDS011;12384;48.112;18.418;2023-01-23T07:19:53;10.77;;;8.50;;
24259;SDS011;12384;48.112;18.418;2023-01-23T07:22:24;8.53;;;7.63;;
24259;SDS011;12384;48.112;18.418;2023-01-23T07:24:54;10.47;;;8.57;;
24259;SDS011;12384;48.112;18.418;2023-01-23T07:27:22;8.60;;;7.67;;
24259;SDS011;12384;48.112;18.418;2023-01-23T07:29:51;8.80;;;8.00;;
24259;SDS011;12384;48.112;18.418;2023-01-23T07:32:19;8.13;;;7.27;;
24259;SDS011;12384;48.112;18.418;2023-01-23T07:34:48;11.80;;;8.70;;
24259;SDS011;12384;48.112;18.418;2023-01-23T07:37:18;12.20;;;9.33;;
24259;SDS011;12384;48.112;18.418;2023-01-23T07:39:47;12.10;;;9.53;;
24259;SDS011;12384;48.112;18.418;2023-01-23T07:42:17;10.27;;;8.80;;
24259;SDS011;12384;48.112;18.418;2023-01-23T07:44:45;9.00;;;8.10;;
24259;SDS011;12384;48.112;18.418;2023-01-23T07:47:14;11.03;;;9.13;;
24259;SDS011;12384;48.112;18.418;2023-01-23T07:49:42;19.50;;;12.07;;
24259;SDS011;12384;48.112;18.418;2023-01-23T07:52:11;15.47;;;10.90;;
24259;SDS011;12384;48.112;18.418;2023-01-23T07:54:39;13.43;;;10.07;;
24259;SDS011;12384;48.112;18.418;2023-01-23T07:57:08;11.83;;;10.37;;
24259;SDS011;12384;48.112;18.418;2023-01-23T07:59:37;15.83;;;12.57;;
24259;SDS011;12384;48.112;18.418;2023-01-23T08:02:07;11.20;;;9.97;;
24259;SDS011;12384;48.112;18.418;2023-01-23T08:04:36;12.00;;;10.13;;
24259;SDS011;12384;48.112;18.418;2023-01-23T08:07:04;8.77;;;7.90;;
24259;SDS011;12384;48.112;18.418;2023-01-23T08:09:33;8.73;;;7.83;;
24259;SDS011;12384;48.112;18.418;2023-01-23T08:12:01;9.33;;;8.47;;
24259;SDS011;12384;48.112;18.418;2023-01-23T08:14:30;8.67;;;7.87;;
24259;SDS011;12384;48.112;18.418;2023-01-23T08:17:00;9.20;;;8.40;;
24259;SDS011;12384;48.112;18.418;2023-01-23T08:19:28;9.53;;;8.67;;
24259;SDS011;12384;48.112;18.418;2023-01-23T08:21:57;10.23;;;9.33;;
24259;SDS011;12384;48.112;18.418;2023-01-23T08:24:25;9.03;;;8.33;;
24259;SDS011;12384;48.112;18.418;2023-01-23T08:26:54;9.13;;;8.30;;
24259;SDS011;12384;48.112;18.418;2023-01-23T08:29:22;22.27;;;16.80;;
24259;SDS011;12384;48.112;18.418;2023-01-23T08:31:50;13.00;;;11.37;;
24259;SDS011;12384;48.112;18.418;2023-01-23T08:34:22;11.67;;;10.57;;
24259;SDS011;12384;48.112;18.418;2023-01-23T08:36:50;9.33;;;8.43;;
24259;SDS011;12384;48.112;18.418;2023-01-23T08:39:19;8.47;;;7.77;;
24259;SDS011;12384;48.112;18.418;2023-01-23T08:41:47;9.30;;;8.40;;
24259;SDS011;12384;48.112;18.418;2023-01-23T08:44:15;11.23;;;10.13;;
24259;SDS011;12384;48.112;18.418;2023-01-23T08:46:44;13.97;;;10.67;;
24259;SDS011;12384;48.112;18.418;2023-01-23T08:49:12;9.30;;;8.40;;
24259;SDS011;12384;48.112;18.418;2023-01-23T08:51:46;9.53;;;8.73;;
24259;SDS011;12384;48.112;18.418;2023-01-23T08:54:14;9.40;;;8.40;;
24259;SDS011;12384;48.112;18.418;2023-01-23T08:56:43;9.10;;;8.37;;
24259;SDS011;12384;48.112;18.418;2023-01-23T08:59:11;8.10;;;7.50;;
24259;SDS011;12384;48.112;18.418;2023-01-23T09:01:40;7.87;;;7.27;;
24259;SDS011;12384;48.112;18.418;2023-01-23T09:04:08;7.90;;;7.23;;
24259;SDS011;12384;48.112;18.418;2023-01-23T09:06:37;8.57;;;7.97;;
24259;SDS011;12384;48.112;18.418;2023-01-23T09:09:06;8.80;;;8.17;;
24259;SDS011;12384;48.112;18.418;2023-01-23T09:11:35;8.80;;;8.10;;
24259;SDS011;12384;48.112;18.418;2023-01-23T09:14:03;9.10;;;8.40;;
24259;SDS011;12384;48.112;18.418;2023-01-23T09:16:31;9.97;;;9.17;;
24259;SDS011;12384;48.112;18.418;2023-01-23T09:19:00;9.33;;;8.57;;
24259;SDS011;12384;48.112;18.418;2023-01-23T09:21:28;9.97;;;8.40;;
24259;SDS011;12384;48.112;18.418;2023-01-23T09:23:57;8.87;;;8.17;;
24259;SDS011;12384;48.112;18.418;2023-01-23T09:26:26;7.80;;;7.23;;
24259;SDS011;12384;48.112;18.418;2023-01-23T09:28:55;8.30;;;7.60;;
24259;SDS011;12384;48.112;18.418;2023-01-23T09:31:24;7.70;;;7.10;;
24259;SDS011;12384;48.112;18.418;2023-01-23T09:33:52;9.27;;;8.37;;
24259;SDS011;12384;48.112;18.418;2023-01-23T09:36:21;15.67;;;11.77;;
24259;SDS011;12384;48.112;18.418;2023-01-23T09:39:07;12.90;;;11.13;;
24259;SDS011;12384;48.112;18.418;2023-01-23T09:41:37;15.07;;;12.70;;
24259;SDS011;12384;48.112;18.418;2023-01-23T09:44:09;15.43;;;13.60;;
24259;SDS011;12384;48.112;18.418;2023-01-23T09:46:43;15.17;;;13.50;;
24259;SDS011;12384;48.112;18.418;2023-01-23T09:49:17;13.30;;;12.00;;
24259;SDS011;12384;48.112;18.418;2023-01-23T09:51:52;12.47;;;11.37;;
24259;SDS011;12384;48.112;18.418;2023-01-23T09:54:28;11.67;;;10.70;;
24259;SDS011;12384;48.112;18.418;2023-01-23T09:57:10;12.17;;;10.97;;
24259;SDS011;12384;48.112;18.418;2023-01-23T09:59:42;12.23;;;11.03;;
24259;SDS011;12384;48.112;18.418;2023-01-23T10:02:26;11.90;;;10.80;;
24259;SDS011;12384;48.112;18.418;2023-01-23T10:04:56;10.40;;;9.60;;
24259;SDS011;12384;48.112;18.418;2023-01-23T10:07:32;9.30;;;8.53;;
24259;SDS011;12384;48.112;18.418;2023-01-23T10:13:12;10.93;;;10.03;;
24259;SDS011;12384;48.112;18.418;2023-01-23T10:15:53;11.53;;;10.63;;
24259;SDS011;12384;48.112;18.418;2023-01-23T10:18:36;13.70;;;12.60;;
24259;SDS011;12384;48.112;18.418;2023-01-23T10:21:14;13.13;;;12.10;;
24259;SDS011;12384;48.112;18.418;2023-01-23T10:23:52;12.80;;;11.70;;
24259;SDS011;12384;48.112;18.418;2023-01-23T10:26:29;13.93;;;12.60;;
24259;SDS011;12384;48.112;18.418;2023-01-23T10:29:00;12.37;;;11.33;;
24259;SDS011;12384;48.112;18.418;2023-01-23T10:31:37;10.17;;;9.37;;
24259;SDS011;12384;48.112;18.418;2023-01-23T10:34:12;10.70;;;9.90;;
24259;SDS011;12384;48.112;18.418;2023-01-23T10:36:46;10.20;;;9.37;;
24259;SDS011;12384;48.112;18.418;2023-01-23T10:39:26;11.57;;;10.57;;
24259;SDS011;12384;48.112;18.418;2023-01-23T10:41:58;11.80;;;10.87;;
24259;SDS011;12384;48.112;18.418;2023-01-23T10:44:29;11.97;;;10.97;;
24259;SDS011;12384;48.112;18.418;2023-01-23T10:46:58;13.90;;;12.60;;
24259;SDS011;12384;48.112;18.418;2023-01-23T10:49:31;11.27;;;10.37;;
24259;SDS011;12384;48.112;18.418;2023-01-23T10:52:02;10.70;;;9.90;;
24259;SDS011;12384;48.112;18.418;2023-01-23T10:54:31;11.13;;;10.23;;
24259;SDS011;12384;48.112;18.418;2023-01-23T10:57:19;10.57;;;9.77;;
24259;SDS011;12384;48.112;18.418;2023-01-23T10:59:54;10.87;;;10.07;;
24259;SDS011;12384;48.112;18.418;2023-01-23T11:02:28;10.30;;;9.50;;
24259;SDS011;12384;48.112;18.418;2023-01-23T11:05:00;10.97;;;10.27;;
24259;SDS011;12384;48.112;18.418;2023-01-23T11:07:31;11.13;;;10.33;;
24259;SDS011;12384;48.112;18.418;2023-01-23T11:10:13;11.13;;;10.33;;
24259;SDS011;12384;48.112;18.418;2023-01-23T11:12:48;10.20;;;9.50;;
24259;SDS011;12384;48.112;18.418;2023-01-23T11:15:21;14.17;;;13.07;;
24259;SDS011;12384;48.112;18.418;2023-01-23T11:17:53;14.57;;;13.37;;
24259;SDS011;12384;48.112;18.418;2023-01-23T11:20:25;15.47;;;14.23;;
24259;SDS011;12384;48.112;18.418;2023-01-23T11:22:59;12.37;;;11.47;;
24259;SDS011;12384;48.112;18.418;2023-01-23T11:25:32;11.73;;;10.83;;
24259;SDS011;12384;48.112;18.418;2023-01-23T11:28:16;10.87;;;10.17;;
24259;SDS011;12384;48.112;18.418;2023-01-23T11:30:52;11.87;;;10.97;;
24259;SDS011;12384;48.112;18.418;2023-01-23T11:33:40;15.60;;;14.30;;
24259;SDS011;12384;48.112;18.418;2023-01-23T11:39:14;12.63;;;11.73;;
24259;SDS011;12384;48.112;18.418;2023-01-23T11:41:49;11.67;;;10.87;;
24259;SDS011;12384;48.112;18.418;2023-01-23T11:44:19;11.73;;;10.93;;
24259;SDS011;12384;48.112;18.418;2023-01-23T11:47:01;11.63;;;10.80;;
24259;SDS011;12384;48.112;18.418;2023-01-23T11:49:50;10.27;;;9.50;;
24259;SDS011;12384;48.112;18.418;2023-01-23T11:52:40;11.70;;;10.90;;
24259;SDS011;12384;48.112;18.418;2023-01-23T11:55:30;11.13;;;10.43;;
24259;SDS011;12384;48.112;18.418;2023-01-23T11:58:09;11.97;;;11.17;;
24259;SDS011;12384;48.112;18.418;2023-01-23T12:00:50;10.70;;;9.90;;
24259;SDS011;12384;48.112;18.418;2023-01-23T12:03:33;11.50;;;10.70;;
24259;SDS011;12384;48.112;18.418;2023-01-23T12:06:28;10.77;;;10.00;;
24259;SDS011;12384;48.112;18.418;2023-01-23T12:09:09;13.13;;;11.83;;
24259;SDS011;12384;48.112;18.418;2023-01-23T12:11:44;17.37;;;15.67;;
24259;SDS011;12384;48.112;18.418;2023-01-23T12:14:24;15.70;;;14.30;;
24259;SDS011;12384;48.112;18.418;2023-01-23T12:17:00;13.03;;;11.93;;
24259;SDS011;12384;48.112;18.418;2023-01-23T12:19:48;12.17;;;11.17;;
24259;SDS011;12384;48.112;18.418;2023-01-23T12:22:30;11.07;;;10.07;;
24259;SDS011;12384;48.112;18.418;2023-01-23T12:25:14;12.07;;;10.87;;
24259;SDS011;12384;48.112;18.418;2023-01-23T12:27:52;12.53;;;11.17;;
24259;SDS011;12384;48.112;18.418;2023-01-23T12:30:34;11.37;;;10.37;;
24259;SDS011;12384;48.112;18.418;2023-01-23T12:33:22;12.37;;;11.37;;
24259;SDS011;12384;48.112;18.418;2023-01-23T12:36:09;12.33;;;11.13;;
24259;SDS011;12384;48.112;18.418;2023-01-23T12:39:04;10.80;;;10.10;;
24259;SDS011;12384;48.112;18.418;2023-01-23T12:41:43;11.83;;;10.83;;
24259;SDS011;12384;48.112;18.418;2023-01-23T12:44:17;10.53;;;9.83;;
24259;SDS011;12384;48.112;18.418;2023-01-23T12:46:50;11.23;;;10.43;;
24259;SDS011;12384;48.112;18.418;2023-01-23T12:49:24;10.70;;;10.00;;
24259;SDS011;12384;48.112;18.418;2023-01-23T12:51:59;11.23;;;10.33;;
24259;SDS011;12384;48.112;18.418;2023-01-23T12:54:36;11.00;;;10.20;;
24259;SDS011;12384;48.112;18.418;2023-01-23T12:57:08;10.53;;;9.83;;
24259;SDS011;12384;48.112;18.418;2023-01-23T12:59:43;10.97;;;10.17;;
24259;SDS011;12384;48.112;18.418;2023-01-23T13:02:21;11.50;;;10.70;;
24259;SDS011;12384;48.112;18.418;2023-01-23T13:05:03;11.50;;;10.70;;
24259;SDS011;12384;48.112;18.418;2023-01-23T13:07:46;11.50;;;10.53;;
24259;SDS011;12384;48.112;18.418;2023-01-23T13:10:23;13.17;;;12.20;;
24259;SDS011;12384;48.112;18.418;2023-01-23T13:13:12;11.43;;;10.73;;
24259;SDS011;12384;48.112;18.418;2023-01-23T13:15:42;11.73;;;10.73;;
24259;SDS011;12384;48.112;18.418;2023-01-23T13:18:20;11.03;;;10.23;;
24259;SDS011;12384;48.112;18.418;2023-01-23T13:20:55;11.40;;;10.60;;
24259;SDS011;12384;48.112;18.418;2023-01-23T13:23:43;11.13;;;10.40;;
24259;SDS011;12384;48.112;18.418;2023-01-23T13:28:57;11.77;;;10.70;;
24259;SDS011;12384;48.112;18.418;2023-01-23T13:31:37;11.33;;;10.50;;
24259;SDS011;12384;48.112;18.418;2023-01-23T13:40:22;11.50;;;10.60;;
24259;SDS011;12384;48.112;18.418;2023-01-23T13:42:51;11.13;;;10.33;;
24259;SDS011;12384;48.112;18.418;2023-01-23T13:45:23;12.07;;;11.27;;
24259;SDS011;12384;48.112;18.418;2023-01-23T13:51:33;11.57;;;10.77;;
24259;SDS011;12384;48.112;18.418;2023-01-23T13:54:17;11.63;;;10.83;;
24259;SDS011;12384;48.112;18.418;2023-01-23T13:57:22;10.77;;;10.00;;
24259;SDS011;12384;48.112;18.418;2023-01-23T14:00:04;11.80;;;10.90;;
24259;SDS011;12384;48.112;18.418;2023-01-23T14:02:54;11.63;;;10.73;;
24259;SDS011;12384;48.112;18.418;2023-01-23T14:06:03;10.63;;;9.93;;
24259;SDS011;12384;48.112;18.418;2023-01-23T14:08:48;12.33;;;11.43;;
24259;SDS011;12384;48.112;18.418;2023-01-23T14:11:34;12.20;;;11.30;;
24259;SDS011;12384;48.112;18.418;2023-01-23T14:14:19;11.83;;;11.03;;
24259;SDS011;12384;48.112;18.418;2023-01-23T14:17:19;12.03;;;11.13;;
24259;SDS011;12384;48.112;18.418;2023-01-23T14:20:04;11.40;;;10.60;;
24259;SDS011;12384;48.112;18.418;2023-01-23T14:22:55;13.00;;;12.10;;
24259;SDS011;12384;48.112;18.418;2023-01-23T14:25:24;12.60;;;11.60;;
24259;SDS011;12384;48.112;18.418;2023-01-23T14:28:00;12.83;;;11.53;;
24259;SDS011;12384;48.112;18.418;2023-01-23T14:30:31;13.70;;;12.40;;
24259;SDS011;12384;48.112;18.418;2023-01-23T14:32:59;12.30;;;11.40;;
24259;SDS011;12384;48.112;18.418;2023-01-23T14:35:29;14.03;;;12.90;;
24259;SDS011;12384;48.112;18.418;2023-01-23T14:37:59;12.77;;;11.93;;
24259;SDS011;12384;48.112;18.418;2023-01-23T14:40:31;13.73;;;12.70;;
24259;SDS011;12384;48.112;18.418;2023-01-23T14:43:17;15.77;;;14.60;;
24259;SDS011;12384;48.112;18.418;2023-01-23T14:45:51;16.03;;;14.83;;
24259;SDS011;12384;48.112;18.418;2023-01-23T14:48:27;13.67;;;12.67;;
24259;SDS011;12384;48.112;18.418;2023-01-23T14:51:06;13.90;;;12.70;;
24259;SDS011;12384;48.112;18.418;2023-01-23T14:53:48;13.90;;;12.90;;
24259;SDS011;12384;48.112;18.418;2023-01-23T14:56:20;13.40;;;12.50;;
24259;SDS011;12384;48.112;18.418;2023-01-23T14:58:54;14.63;;;13.43;;
24259;SDS011;12384;48.112;18.418;2023-01-23T15:01:27;14.33;;;13.23;;
24259;SDS011;12384;48.112;18.418;2023-01-23T15:03:59;14.87;;;13.77;;
24259;SDS011;12384;48.112;18.418;2023-01-23T15:06:30;14.00;;;13.00;;
24259;SDS011;12384;48.112;18.418;2023-01-23T15:09:04;15.17;;;13.97;;
24259;SDS011;12384;48.112;18.418;2023-01-23T15:11:34;14.20;;;13.17;;
24259;SDS011;12384;48.112;18.418;2023-01-23T15:14:03;14.07;;;12.77;;